MET'MAP v2.0
soon released !

Expected late october,
this new version will be
more efficient, smarter,
and hosted on a brand new
server x3 powerfull...
...and still free !


Not compatible ?
Try the mobile version !

LOG IN : | Subscribe | Disclaimer | Who is Orbifly ? |
ICAO code :
Legend : VFR Marginal VFR IFR Intensive IFR Very Intensive IFR
Visi :
Ceiling :
>= 8 km
>= 3000ft
5 to 8 km
1000 to 3000 ft
1500m to 5 km
500 to 1000 ft
800 to 1500m
200 to 500 ft
< 800m
< 200 ft

METAR - EGQK RAF Kinloss - 25 Feb 2020 17:22 UTC - Data Source NOAA   


- Airport Elevation : 22 ft
- IATA code : FSS
- No reported NOTAMs.


EGQK - RAF Kinloss

Latest METAR recorded : 2015/08/11 07:50 EGQK 110750Z AUTO 30006KT 9999 -SHRA BKN013/// BKN019/// 12/10 Q1016
TAF TAF EGQK
Valid from the 25 at 15:00 until the 26 at 09:00 UTC


251326Z 2515/2609 25010KT 9999 FEW020
TEMPO 2512/2519 SCT020
PROB30
TEMPO 2515/2519 4000 SHRASN SCT014CB BKN020
PROB30
TEMPO 2519/2609 -SHRASN SCT020

Source NOAA


MET'MAP, your aeronautical weather chart ! - Copyright ORBIFLY December 2007

Programming & Development : Alexandra Zaïnal
Co-Developer : Marc-Olivier Méhu
Technical & hardware support : Manuel Goepfert
Concept & Financing : Baudouin d'Aumeries